TULLOCH (TUL)

Elevation: 515' · STANISLAUS R basin · Operator: US Bureau of Reclamation

Provisional data, subject to change.
Query executed Friday at 20:10:56   clock

Select a sensor type for a plot of data.
Note: Reservoir Flows are daily averages.

Earlier

Date RES ELE    STORAGE    RES CHG    TOC STO    ABV TOC    OUTFLOW    INFLOW    EVAP    RIV REL    SPILL    DIS PWR   
 FEET   AF   AF   AF   AF   CFS   CFS   CFS   CFS   CFS   CFS  
08/31/2016 508.59 65215 884 67000 -1785 957 1419 16 0 0 957
09/01/2016 508.92 65622 407 67000 -1378 969 1187 13 0 0 969
09/02/2016 508.71 65363 -259 67000 -1637 1018 901 14 0 0 1018
09/03/2016 508.93 65634 271 67000 -1366 1061 1212 14 0 0 1061
09/04/2016 507.96 64441 -1193 67000 -2559 1035 447 13 0 0 1035
09/05/2016 508.62 65252 811 67000 -1748 1025 1446 12 0 0 1025
09/06/2016 508.76 65425 173 67000 -1575 1013 1112 12 0 0 1013
09/07/2016 508.41 64994 -431 67000 -2006 1001 798 14 0 0 1001
09/08/2016 508.50 65105 111 67000 -1895 1067 1137 14 0 0 1067
09/09/2016 508.85 65535 430 67000 -1465 1017 1248 14 0 0 1017
09/10/2016 508.88 65572 37 67000 -1428 949 980 12 0 0 949
09/11/2016 509.15 65907 335 67000 -1093 936 1119 14 0 0 936
09/12/2016 509.08 65820 -87 67000 -1180 797 767 14 0 0 797
09/13/2016 509.12 65870 50 67000 -1130 845 882 12 0 0 845
09/14/2016 508.35 64920 -950 67000 -2080 881 412 10 0 0 881
09/15/2016 508.12 64637 -283 66783 -2146 895 762 10 0 0 895
09/16/2016 508.03 64526 -111 66565 -2039 925 880 11 0 0 925
09/17/2016 507.89 64356 -170 66348 -1992 992 918 12 0 0 992
09/18/2016 507.70 64125 -231 66130 -2005 979 876 13 0 76 903
09/19/2016 507.69 64113 -- 65913 -1800 1011 1005 0 0 0 1011
09/20/2016 508.18 64711 598 65696 -985 1050 1366 15 0 0 1050
09/21/2016 508.52 65129 418 65478 -349 981 1204 12 0 0 981
09/22/2016 508.19 64723 -406 65261 -538 950 752 7 0 0 950
09/23/2016 508.12 64637 -86 65043 -406 946 912 9 0 0 946
09/24/2016 507.51 63895 -742 64826 -931 924 559 9 0 0 924
09/25/2016 506.79 63026 -869 64609 -1583 872 443 9 0 0 872
09/26/2016 506.52 62704 -322 64391 -1687 843 694 13 0 0 843
09/27/2016 507.03 63313 609 64174 -861 891 1211 13 0 0 891
09/28/2016 507.18 63495 182 63956 -461 869 976 15 0 0 869
09/29/2016 506.96 63229 -266 63739 -510 778 656 12 0 0 778
09/30/2016 -- -- -- -- -- -- -- -- -- -- --

Later | Latest

Warning! This data is preliminary and subject to revision.

Show TUL Map | Plot TUL Data | 1 Month TUL Data | Real-Time TUL Data | TUL Info